Time;durP1;ratioP1;P1;durP2;ratioP2;P2;SDS_P1;SDS_P2;PMS_P1;PMS_P2;Temp;Humidity;BMP_temperature;BMP_pressure;BME280_temperature;BME280_humidity;BME280_pressure;Samples;Min_cycle;Max_cycle;Signal;HPM_P1;HPM_P2
2023/05/07 00:02:12;;;;;;;7.20;3.70;;;;;;;14.03;100.00;100451.84;5025739;28;20202;-74
2023/05/07 00:04:38;;;;;;;5.13;3.23;;;;;;;13.98;100.00;100450.94;5025473;28;20222;-74
2023/05/07 00:07:05;;;;;;;4.47;2.97;;;;;;;13.96;100.00;100442.06;5028756;28;20187;-73
2023/05/07 00:09:31;;;;;;;5.37;3.40;;;;;;;14.05;100.00;100450.09;5017979;28;20203;-74
2023/05/07 00:11:58;;;;;;;6.87;3.90;;;;;;;14.21;100.00;100445.63;5029952;28;20238;-75
2023/05/07 00:14:24;;;;;;;5.43;3.50;;;;;;;14.31;100.00;100444.72;5017237;28;20259;-75
2023/05/07 00:16:51;;;;;;;6.03;3.53;;;;;;;14.37;100.00;100442.06;5011119;28;20703;-74
2023/05/07 00:19:17;;;;;;;5.27;3.30;;;;;;;14.37;100.00;100442.06;5019680;28;20204;-75
2023/05/07 00:21:44;;;;;;;4.87;3.13;;;;;;;14.37;100.00;100442.06;5028462;28;20273;-75
2023/05/07 00:24:10;;;;;;;5.07;3.60;;;;;;;14.38;100.00;100442.03;5027115;28;20678;-74
2023/05/07 00:26:36;;;;;;;4.13;3.20;;;;;;;14.37;100.00;100448.25;5029255;28;20234;-75
2023/05/07 00:29:03;;;;;;;5.27;3.13;;;;;;;14.34;100.00;100442.94;5025601;28;20192;-74
2023/05/07 00:31:29;;;;;;;5.40;3.63;;;;;;;14.37;100.00;100442.94;5011697;28;20203;-72
2023/05/07 00:33:55;;;;;;;5.30;3.17;;;;;;;14.41;100.00;100431.41;5028449;28;20322;-74
2023/05/07 00:36:22;;;;;;;3.90;2.80;;;;;;;14.40;100.00;100434.06;5025602;28;20224;-74
2023/05/07 00:38:48;;;;;;;4.03;2.70;;;;;;;14.38;100.00;100425.19;5027206;28;20253;-74
2023/05/07 00:41:15;;;;;;;4.47;3.20;;;;;;;14.32;100.00;100433.19;5027524;28;20230;-75
2023/05/07 00:43:41;;;;;;;4.00;2.97;;;;;;;14.24;100.00;100419.88;5028780;28;20227;-75
2023/05/07 00:46:07;;;;;;;4.40;3.00;;;;;;;14.19;100.00;100428.75;5026195;28;20298;-74
2023/05/07 00:48:34;;;;;;;4.00;3.03;;;;;;;14.10;100.00;100427.88;5023854;28;20682;-75
2023/05/07 00:51:00;;;;;;;3.70;2.73;;;;;;;14.01;100.00;100422.56;5023595;28;20199;-74
2023/05/07 00:53:27;;;;;;;3.93;3.00;;;;;;;13.92;100.00;100424.31;5021421;28;20196;-75
2023/05/07 00:55:54;;;;;;;4.70;2.90;;;;;;;13.95;100.00;100429.63;5018787;28;20376;-75
2023/05/07 00:58:21;;;;;;;3.53;3.07;;;;;;;14.03;100.00;100425.22;5008799;28;20231;-75
2023/05/07 01:00:49;;;;;;;6.20;3.20;;;;;;;14.07;100.00;100430.56;5016806;28;20195;-74
2023/05/07 01:03:16;;;;;;;3.63;3.07;;;;;;;13.97;100.00;100423.44;5012580;28;20269;-75
2023/05/07 01:05:45;;;;;;;3.50;2.83;;;;;;;13.89;100.00;100427.88;5014510;28;20276;-75
2023/05/07 01:08:13;;;;;;;4.73;3.20;;;;;;;13.79;100.00;100424.31;5022035;28;20246;-74
2023/05/07 01:10:42;;;;;;;4.93;3.20;;;;;;;13.80;100.00;100427.88;5014521;28;20314;-75
2023/05/07 01:13:10;;;;;;;4.13;3.03;;;;;;;13.89;100.00;100432.31;5020210;28;20199;-74
2023/05/07 01:15:37;;;;;;;4.43;2.83;;;;;;;13.86;100.00;100440.28;5020623;28;20306;-74
2023/05/07 01:18:04;;;;;;;4.83;3.10;;;;;;;13.82;100.00;100441.19;5016428;28;20208;-74
2023/05/07 01:20:33;;;;;;;4.07;3.20;;;;;;;13.76;100.00;100442.06;5000429;28;20282;-73
2023/05/07 01:23:00;;;;;;;4.87;3.00;;;;;;;13.73;100.00;100445.63;5020662;28;20200;-74
2023/05/07 01:25:27;;;;;;;4.80;3.53;;;;;;;13.72;100.00;100435.84;5014685;28;20282;-75
2023/05/07 01:27:53;;;;;;;5.83;3.40;;;;;;;13.73;100.00;100431.41;5020086;28;20261;-74
2023/05/07 01:30:22;;;;;;;5.60;3.00;;;;;;;13.71;100.00;100415.44;5018150;28;20626;-75
2023/05/07 01:33:00;;;;;;;4.23;2.83;;;;;;;13.75;100.00;100425.22;5018131;28;20250;-74
2023/05/07 01:35:32;;;;;;;4.97;3.20;;;;;;;13.83;100.00;100419.00;5016597;28;20238;-75
2023/05/07 01:37:59;;;;;;;5.03;3.17;;;;;;;13.85;100.00;100418.09;5019016;28;20227;-75
2023/05/07 01:40:27;;;;;;;4.87;3.10;;;;;;;13.96;100.00;100404.78;5021938;28;20208;-75
2023/05/07 01:42:54;;;;;;;4.67;3.10;;;;;;;13.96;100.00;100408.34;5021603;28;20192;-75
2023/05/07 01:45:21;;;;;;;4.53;2.70;;;;;;;14.01;100.00;100400.38;5020781;28;20223;-74
2023/05/07 01:47:49;;;;;;;4.10;2.80;;;;;;;14.01;100.00;100403.03;5008197;28;20588;-74
2023/05/07 01:50:18;;;;;;;3.80;2.50;;;;;;;13.99;100.00;100396.81;5020187;28;20203;-74
2023/05/07 01:52:45;;;;;;;4.67;3.20;;;;;;;14.09;100.00;100387.94;5019258;28;20259;-73
2023/05/07 01:55:11;;;;;;;4.03;2.53;;;;;;;14.19;100.00;100396.81;5019975;28;20231;-72
2023/05/07 01:57:37;;;;;;;3.37;2.80;;;;;;;14.16;100.00;100405.69;5021551;28;20306;-75
2023/05/07 02:00:05;;;;;;;2.97;2.60;;;;;;;14.07;100.00;100403.03;5014852;28;20636;-74
2023/05/07 02:02:31;;;;;;;4.87;2.70;;;;;;;14.04;100.00;100408.38;5022223;28;20249;-75
2023/05/07 02:04:59;;;;;;;4.83;2.60;;;;;;;14.03;100.00;100396.81;5021976;28;20227;-75
2023/05/07 02:07:25;;;;;;;2.90;2.40;;;;;;;14.07;100.00;100403.03;5026643;28;20227;-74
2023/05/07 02:09:52;;;;;;;6.33;2.30;;;;;;;14.04;100.00;100411.91;5029206;28;20196;-75
2023/05/07 02:12:18;;;;;;;4.70;2.50;;;;;;;14.03;100.00;100406.59;5027619;28;20239;-75
2023/05/07 02:14:44;;;;;;;3.40;2.53;;;;;;;14.01;100.00;100406.59;5030274;28;20254;-74
2023/05/07 02:17:11;;;;;;;3.30;2.67;;;;;;;13.98;100.00;100403.91;5027961;28;20334;-74
2023/05/07 02:19:37;;;;;;;3.80;2.87;;;;;;;13.98;100.00;100409.22;5027906;28;20231;-75
2023/05/07 02:22:03;;;;;;;7.03;2.80;;;;;;;13.95;100.00;100401.25;5031238;28;20195;-74
2023/05/07 02:24:30;;;;;;;3.77;2.70;;;;;;;13.96;100.00;100404.78;5025878;28;20224;-75
2023/05/07 02:26:56;;;;;;;4.40;2.77;;;;;;;13.96;100.00;100405.69;5024120;28;20222;-75
2023/05/07 02:29:22;;;;;;;5.83;2.77;;;;;;;13.96;100.00;100405.69;5030408;28;20199;-75
2023/05/07 02:31:52;;;;;;;3.47;2.80;;;;;;;13.95;100.00;100405.69;5013438;28;20196;-75
2023/05/07 02:34:19;;;;;;;3.53;2.50;;;;;;;13.96;100.00;100405.69;5023797;28;20191;-74
2023/05/07 02:36:45;;;;;;;6.40;3.07;;;;;;;13.89;100.00;100400.34;5029104;28;20255;-74
2023/05/07 02:39:12;;;;;;;3.20;2.43;;;;;;;13.94;100.00;100415.44;5031386;28;20231;-74
2023/05/07 02:41:39;;;;;;;3.20;2.80;;;;;;;13.93;100.00;100411.00;5030984;28;20286;-74
2023/05/07 02:44:05;;;;;;;4.60;2.80;;;;;;;13.92;100.00;100411.91;5030105;28;20418;-73
2023/05/07 02:46:32;;;;;;;3.70;2.47;;;;;;;13.87;100.00;100405.69;5029980;28;20191;-74
2023/05/07 02:48:58;;;;;;;3.43;2.77;;;;;;;13.91;100.00;100414.56;5023315;28;20664;-75
2023/05/07 02:51:25;;;;;;;2.83;2.30;;;;;;;13.88;100.00;100418.09;5022317;28;20234;-74
2023/05/07 02:53:52;;;;;;;4.00;2.20;;;;;;;13.87;100.00;100412.78;5027678;28;20226;-74
2023/05/07 02:56:18;;;;;;;2.87;2.40;;;;;;;13.88;100.00;100417.22;5029427;28;20227;-74
2023/05/07 02:58:45;;;;;;;2.53;2.30;;;;;;;13.97;100.00;100403.91;5026747;28;20674;-74
2023/05/07 03:01:12;;;;;;;4.30;2.80;;;;;;;14.06;100.00;100404.81;5029330;28;20204;-74
2023/05/07 03:03:38;;;;;;;2.73;2.37;;;;;;;14.08;100.00;100399.47;5027340;28;20219;-75
2023/05/07 03:06:06;;;;;;;2.80;2.50;;;;;;;14.14;100.00;100409.25;5032429;28;20265;-74
2023/05/07 03:08:32;;;;;;;4.53;2.50;;;;;;;14.04;100.00;100403.03;5016973;28;20201;-74
2023/05/07 03:10:59;;;;;;;4.33;2.37;;;;;;;13.93;100.00;100411.00;5035298;28;20307;-74
2023/05/07 03:13:25;;;;;;;5.03;2.50;;;;;;;13.90;100.00;100413.66;5023454;28;21965;-74
2023/05/07 03:15:52;;;;;;;5.87;2.57;;;;;;;13.87;100.00;100418.09;5028453;28;20653;-75
2023/05/07 03:18:18;;;;;;;3.00;2.50;;;;;;;13.80;100.00;100410.13;5026217;28;20227;-74
2023/05/07 03:20:46;;;;;;;2.93;2.30;;;;;;;13.88;100.00;100402.13;5031024;28;20203;-74
2023/05/07 03:23:12;;;;;;;3.57;2.60;;;;;;;13.94;100.00;100406.56;5017570;28;20242;-74
2023/05/07 03:25:38;;;;;;;3.40;2.60;;;;;;;13.89;100.00;100387.94;5026932;28;20621;-74
2023/05/07 03:28:05;;;;;;;3.53;2.90;;;;;;;13.90;100.00;100391.47;5021862;28;20215;-74
2023/05/07 03:30:31;;;;;;;4.13;2.80;;;;;;;13.87;100.00;100388.81;5011796;28;20199;-74
2023/05/07 03:32:58;;;;;;;7.13;2.97;;;;;;;13.83;100.00;100385.28;5019992;28;20661;-74
2023/05/07 03:35:24;;;;;;;2.77;2.47;;;;;;;13.82;100.00;100383.50;5028831;28;20227;-74
2023/05/07 03:37:50;;;;;;;2.97;2.57;;;;;;;13.73;100.00;100379.06;5024359;28;20219;-74
2023/05/07 03:40:17;;;;;;;4.00;3.30;;;;;;;13.65;100.00;100382.63;5026610;28;20215;-75
2023/05/07 03:42:43;;;;;;;3.30;2.50;;;;;;;13.62;100.00;100387.94;5024911;28;20208;-75
2023/05/07 03:45:10;;;;;;;4.63;2.67;;;;;;;13.58;100.00;100392.34;5025989;28;20326;-75
2023/05/07 03:47:36;;;;;;;3.40;2.30;;;;;;;13.54;100.00;100385.25;5028130;28;20243;-75
2023/05/07 03:50:03;;;;;;;3.80;2.50;;;;;;;13.53;100.00;100387.91;5022354;28;20211;-75
2023/05/07 03:52:29;;;;;;;3.63;2.73;;;;;;;13.50;100.00;100391.44;5023265;28;20199;-75
2023/05/07 03:54:56;;;;;;;4.70;2.70;;;;;;;13.64;100.00;100391.50;5025215;28;20600;-76
2023/05/07 03:57:22;;;;;;;4.80;3.10;;;;;;;13.65;100.00;100383.50;5007773;28;20274;-74
2023/05/07 03:59:48;;;;;;;3.93;2.90;;;;;;;13.67;100.00;100392.38;5026331;28;20196;-74
2023/05/07 04:02:15;;;;;;;3.53;2.87;;;;;;;13.66;100.00;100401.25;5021532;28;20675;-74
2023/05/07 04:04:41;;;;;;;3.67;2.90;;;;;;;13.68;100.00;100402.13;5022799;28;20212;-74
2023/05/07 04:07:08;;;;;;;5.37;2.90;;;;;;;13.64;100.00;100402.13;5024397;28;20652;-74
2023/05/07 04:09:34;;;;;;;6.73;3.33;;;;;;;13.67;100.00;100402.13;5027330;28;20199;-75
2023/05/07 04:12:01;;;;;;;4.83;3.40;;;;;;;13.78;100.00;100419.88;5025104;28;20219;-75
2023/05/07 04:14:27;;;;;;;5.33;3.40;;;;;;;13.79;100.00;100415.44;5021664;28;20261;-75
2023/05/07 04:16:54;;;;;;;3.17;2.70;;;;;;;13.76;100.00;100415.44;5028525;28;20220;-75
2023/05/07 04:19:20;;;;;;;4.13;2.87;;;;;;;13.73;100.00;100416.34;5025680;28;20571;-74
2023/05/07 04:21:47;;;;;;;5.70;3.03;;;;;;;13.73;100.00;100421.66;5027551;28;20715;-74
2023/05/07 04:24:13;;;;;;;4.87;3.27;;;;;;;13.70;100.00;100418.09;5029008;28;20225;-75
2023/05/07 04:26:40;;;;;;;3.77;3.03;;;;;;;13.72;100.00;100432.31;5028243;28;20192;-75
2023/05/07 04:29:06;;;;;;;4.07;2.80;;;;;;;13.71;100.00;100433.19;5025629;28;20227;-74
2023/05/07 04:31:33;;;;;;;8.07;2.90;;;;;;;13.82;100.00;100427.88;5026087;28;20232;-74
2023/05/07 04:33:59;;;;;;;4.53;3.30;;;;;;;13.93;100.00;100434.97;5028436;28;20202;-75
2023/05/07 04:36:27;;;;;;;4.10;3.00;;;;;;;13.94;100.00;100431.41;5031923;23;20236;-72
2023/05/07 04:38:53;;;;;;;4.20;2.83;;;;;;;13.98;100.00;100437.63;5007521;28;20735;-73
2023/05/07 04:41:20;;;;;;;4.87;3.13;;;;;;;14.01;100.00;100427.00;5011527;28;20203;-71
2023/05/07 04:43:47;;;;;;;6.23;2.63;;;;;;;14.03;100.00;100428.78;5026227;28;20192;-72
2023/05/07 04:46:13;;;;;;;4.07;2.73;;;;;;;14.04;100.00;100425.22;5017841;28;20216;-72
2023/05/07 04:48:40;;;;;;;5.13;2.63;;;;;;;14.17;100.00;100426.09;5008075;28;20196;-73
2023/05/07 04:51:06;;;;;;;4.43;2.77;;;;;;;14.26;100.00;100431.41;5010502;28;20258;-72
2023/05/07 04:53:33;;;;;;;4.33;2.90;;;;;;;14.46;100.00;100434.09;5010072;28;20739;-72
2023/05/07 04:55:59;;;;;;;3.60;2.90;;;;;;;14.57;100.00;100431.41;4992183;28;20683;-72
2023/05/07 04:58:25;;;;;;;6.03;3.03;;;;;;;14.76;100.00;100437.56;5007124;28;20645;-72
2023/05/07 05:00:52;;;;;;;5.23;2.87;;;;;;;14.98;100.00;100441.94;5007304;28;20684;-73
2023/05/07 05:03:18;;;;;;;3.43;2.57;;;;;;;15.08;100.00;100440.13;5004252;28;20212;-71
2023/05/07 05:05:45;;;;;;;4.13;2.60;;;;;;;15.19;100.00;100449.84;5009129;28;20299;-72
2023/05/07 05:08:11;;;;;;;5.93;2.60;;;;;;;15.33;100.00;100448.03;5010791;28;20204;-72
2023/05/07 05:10:37;;;;;;;3.83;2.33;;;;;;;15.46;99.40;100451.50;5009673;28;20250;-72
2023/05/07 05:13:04;;;;;;;3.37;2.60;;;;;;;15.55;97.84;100450.56;5005536;28;20204;-72
2023/05/07 05:15:30;;;;;;;4.37;2.47;;;;;;;15.66;96.87;100456.78;4990870;28;20227;-72
2023/05/07 05:17:59;;;;;;;4.03;2.47;;;;;;;15.66;96.77;100447.00;4990388;28;20212;-72
2023/05/07 05:20:25;;;;;;;3.67;2.43;;;;;;;15.78;96.14;100464.69;5010173;28;20233;-72
2023/05/07 05:22:52;;;;;;;2.67;2.10;;;;;;;15.86;94.99;100464.66;5009010;28;20196;-72
2023/05/07 05:25:18;;;;;;;4.30;2.20;;;;;;;16.03;94.38;100465.44;5011322;28;20219;-72
2023/05/07 05:27:45;;;;;;;2.73;2.47;;;;;;;16.15;93.99;100451.97;5006458;28;20204;-71
2023/05/07 05:30:12;;;;;;;3.13;2.10;;;;;;;16.28;92.60;100453.63;5010335;28;20635;-73
2023/05/07 05:32:39;;;;;;;3.17;2.30;;;;;;;16.47;92.48;100456.13;5009682;28;20631;-72
2023/05/07 05:35:05;;;;;;;3.53;2.23;;;;;;;16.66;90.56;100460.41;5007088;28;20543;-73
2023/05/07 05:37:32;;;;;;;2.63;2.10;;;;;;;16.88;88.41;100461.97;5004743;28;20266;-72
2023/05/07 05:39:58;;;;;;;3.37;2.17;;;;;;;17.11;85.88;100459.03;5011011;28;20808;-72
2023/05/07 05:42:24;;;;;;;5.10;2.20;;;;;;;17.34;80.75;100469.44;5013247;28;20196;-72
2023/05/07 05:44:51;;;;;;;2.30;1.93;;;;;;;17.49;79.77;100468.34;5006056;28;20259;-72
2023/05/07 05:47:17;;;;;;;2.50;2.10;;;;;;;17.62;79.13;100466.41;5007614;28;20211;-72
2023/05/07 05:49:44;;;;;;;3.30;1.93;;;;;;;17.72;76.64;100463.59;5008720;28;20193;-73
2023/05/07 05:52:13;;;;;;;2.93;1.90;;;;;;;17.91;78.41;100466.88;5011865;28;20211;-72
2023/05/07 05:54:39;;;;;;;2.90;2.17;;;;;;;18.05;78.25;100466.69;5012022;28;20292;-72
2023/05/07 05:57:06;;;;;;;3.73;2.00;;;;;;;18.17;75.71;100467.38;4990827;28;20240;-72
2023/05/07 05:59:32;;;;;;;2.13;1.93;;;;;;;18.25;74.83;100455.63;5011915;28;20224;-72
2023/05/07 06:01:59;;;;;;;2.83;1.90;;;;;;;18.32;73.18;100457.28;4986933;28;20193;-72
2023/05/07 06:04:25;;;;;;;3.83;2.03;;;;;;;18.35;73.20;100459.91;5007416;28;20197;-72
2023/05/07 06:06:52;;;;;;;3.73;1.83;;;;;;;18.26;71.97;100458.28;5008528;28;20235;-72
2023/05/07 06:09:18;;;;;;;2.00;1.80;;;;;;;18.29;72.73;100468.94;5008470;28;20208;-72
2023/05/07 06:11:44;;;;;;;3.20;2.13;;;;;;;18.27;72.06;100465.41;4993168;28;20242;-73
2023/05/07 06:14:10;;;;;;;5.03;2.00;;;;;;;18.17;71.68;100469.16;5008005;28;20626;-72
2023/05/07 06:16:37;;;;;;;4.03;1.90;;;;;;;18.37;71.95;100463.44;5011498;28;20231;-72
2023/05/07 06:19:04;;;;;;;3.70;2.00;;;;;;;18.58;70.86;100467.56;5006425;28;20674;-72
2023/05/07 06:21:31;;;;;;;2.67;2.00;;;;;;;18.82;69.85;100472.53;4993161;28;20626;-73
2023/05/07 06:23:57;;;;;;;2.60;2.40;;;;;;;19.14;68.98;100477.25;4993374;28;20237;-72
2023/05/07 06:26:23;;;;;;;3.10;2.07;;;;;;;19.45;66.78;100472.13;5007373;28;20266;-73
2023/05/07 06:28:50;;;;;;;6.10;1.90;;;;;;;19.77;64.03;100475.94;5007993;28;20200;-72
2023/05/07 06:31:20;;;;;;;2.80;1.90;;;;;;;20.16;62.92;100463.34;5010697;28;20311;-72
2023/05/07 06:33:46;;;;;;;2.93;2.10;;;;;;;20.20;63.10;100462.34;5005382;28;20224;-72
2023/05/07 06:36:13;;;;;;;3.10;1.80;;;;;;;20.42;61.72;100466.31;4992548;28;20232;-73
2023/05/07 06:38:39;;;;;;;3.70;2.30;;;;;;;20.57;61.25;100467.72;4989303;28;20233;-72
2023/05/07 06:41:06;;;;;;;3.70;2.30;;;;;;;20.49;60.90;100470.63;4993240;28;20224;-72
2023/05/07 06:43:33;;;;;;;3.45;2.20;;;;;;;20.17;61.21;100470.50;5014938;28;20274;-72
2023/05/07 06:45:59;;;;;;;3.50;2.53;;;;;;;19.72;61.86;100476.03;5010654;28;20687;-74
2023/05/07 06:48:26;;;;;;;3.17;2.13;;;;;;;19.74;62.69;100484.06;5011754;28;20204;-72
2023/05/07 06:50:52;;;;;;;2.30;2.10;;;;;;;19.84;62.59;100478.44;5000431;28;20615;-71
2023/05/07 06:53:19;;;;;;;3.27;2.10;;;;;;;19.96;62.46;100485.31;5023763;28;20234;-74
2023/05/07 06:55:45;;;;;;;3.13;2.37;;;;;;;20.14;62.17;100492.09;4998974;28;20215;-73
2023/05/07 06:58:12;;;;;;;2.70;2.20;;;;;;;20.12;62.01;100485.88;5008601;28;20311;-72
2023/05/07 07:00:38;;;;;;;3.03;2.40;;;;;;;20.34;61.43;100487.97;5013813;28;20235;-73
2023/05/07 07:03:04;;;;;;;3.03;2.40;;;;;;;20.42;60.72;100484.28;5016091;28;20679;-72
2023/05/07 07:05:31;;;;;;;4.87;2.63;;;;;;;20.38;60.78;100482.50;5016561;28;20306;-74
2023/05/07 07:07:57;;;;;;;2.92;2.13;;;;;;;20.30;61.12;100480.03;5009433;28;20691;-72
2023/05/07 07:10:23;;;;;;;2.58;2.20;;;;;;;20.45;62.02;100493.13;5013601;28;20203;-72
2023/05/07 07:12:50;;;;;;;3.45;1.80;;;;;;;20.52;61.45;100494.75;5004441;28;20563;-72
2023/05/07 07:15:16;;;;;;;5.93;2.33;;;;;;;20.42;61.59;100492.34;5011313;28;20220;-72
2023/05/07 07:17:43;;;;;;;4.32;2.40;;;;;;;20.38;61.12;100493.28;5013012;28;20270;-73
2023/05/07 07:20:10;;;;;;;2.63;2.20;;;;;;;20.41;61.43;100498.59;5009124;28;20732;-73
2023/05/07 07:22:37;;;;;;;4.35;2.28;;;;;;;20.41;61.59;100496.81;4988406;28;20208;-73
2023/05/07 07:25:04;;;;;;;3.70;2.30;;;;;;;20.36;61.26;100487.94;5009557;28;20319;-73
2023/05/07 07:27:30;;;;;;;2.85;2.30;;;;;;;20.52;61.44;100496.56;4994456;28;20584;-74
2023/05/07 07:29:57;;;;;;;4.13;2.53;;;;;;;20.52;61.26;100499.25;4994788;28;20200;-72
2023/05/07 07:32:23;;;;;;;3.22;2.47;;;;;;;20.72;61.53;100502.28;5010925;28;20208;-73
2023/05/07 07:34:50;;;;;;;2.63;2.40;;;;;;;20.80;60.46;100502.97;5008937;28;20223;-73
2023/05/07 07:37:16;;;;;;;4.63;2.33;;;;;;;20.86;60.71;100504.63;5013458;28;20232;-72
2023/05/07 07:39:42;;;;;;;3.20;2.40;;;;;;;20.89;60.56;100494.66;5012587;28;20246;-72
2023/05/07 07:42:09;;;;;;;3.90;2.53;;;;;;;20.85;59.86;100498.38;5015306;28;20247;-72
2023/05/07 07:44:35;;;;;;;3.13;2.50;;;;;;;20.78;60.17;100496.72;5011376;28;20211;-73
2023/05/07 07:47:01;;;;;;;2.90;2.50;;;;;;;20.84;60.13;100503.78;5013046;28;20196;-72
2023/05/07 07:49:28;;;;;;;2.60;2.30;;;;;;;20.72;60.24;100501.41;5004766;28;20570;-72
2023/05/07 07:51:56;;;;;;;3.63;2.33;;;;;;;20.78;60.46;100504.81;5012254;28;20706;-72
2023/05/07 07:54:22;;;;;;;4.57;2.90;;;;;;;20.68;60.64;100503.28;5009435;28;20196;-74
2023/05/07 07:56:48;;;;;;;3.83;2.50;;;;;;;20.64;60.67;100501.59;4987289;28;20230;-72
2023/05/07 07:59:18;;;;;;;5.57;2.85;;;;;;;20.63;60.70;100511.50;5010688;28;20212;-72
2023/05/07 08:01:45;;;;;;;3.25;2.70;;;;;;;20.71;60.62;100505.91;5018928;28;20573;-72
2023/05/07 08:04:11;;;;;;;4.05;2.47;;;;;;;20.83;60.21;100502.91;5013255;28;20203;-72
2023/05/07 08:06:38;;;;;;;2.85;2.53;;;;;;;20.97;60.59;100505.22;5012961;28;20224;-73
2023/05/07 08:09:04;;;;;;;4.50;2.97;;;;;;;21.10;60.73;100514.72;5002233;28;20192;-73
2023/05/07 08:11:30;;;;;;;4.63;2.55;;;;;;;21.47;59.39;100513.69;5013237;28;20231;-72
2023/05/07 08:13:57;;;;;;;5.47;2.72;;;;;;;21.74;58.32;100503.91;5016301;28;20192;-73
2023/05/07 08:16:23;;;;;;;3.42;2.90;;;;;;;21.82;59.10;100507.25;5015368;28;20270;-72
2023/05/07 08:18:49;;;;;;;4.28;2.67;;;;;;;22.03;58.54;100505.72;5008860;28;20216;-72
2023/05/07 08:21:16;;;;;;;3.30;2.78;;;;;;;22.15;58.49;100508.94;5008455;28;20234;-73
2023/05/07 08:23:42;;;;;;;4.00;2.72;;;;;;;22.01;57.03;100507.56;5016469;28;20450;-72
2023/05/07 08:26:09;;;;;;;5.07;2.90;;;;;;;22.39;57.33;100515.31;5010061;28;20255;-74
2023/05/07 08:28:35;;;;;;;3.55;3.10;;;;;;;22.18;55.90;100507.94;5012849;28;20227;-73
2023/05/07 08:31:01;;;;;;;3.38;2.40;;;;;;;22.25;56.59;100509.50;5003826;28;20251;-73
2023/05/07 08:33:28;;;;;;;3.40;2.63;;;;;;;22.41;55.94;100510.75;5000910;28;20216;-72
2023/05/07 08:35:54;;;;;;;2.90;2.42;;;;;;;22.65;56.32;100498.25;5000882;28;20309;-74
2023/05/07 08:38:20;;;;;;;3.67;2.92;;;;;;;22.99;54.57;100514.19;4997208;28;20286;-73
2023/05/07 08:40:47;;;;;;;5.38;2.60;;;;;;;23.51;50.63;100514.09;4979413;28;20196;-73
2023/05/07 08:43:14;;;;;;;4.07;2.97;;;;;;;23.68;49.22;100517.97;5001174;28;20192;-74
2023/05/07 08:45:41;;;;;;;4.65;2.92;;;;;;;23.49;48.60;100514.16;4983452;28;20216;-74
2023/05/07 08:48:15;;;;;;;2.80;2.50;;;;;;;23.31;49.65;100504.06;4994258;28;20196;-73
2023/05/07 08:50:42;;;;;;;4.68;3.25;;;;;;;22.99;50.11;100516.03;4996651;28;20212;-73
2023/05/07 08:53:08;;;;;;;5.13;2.80;;;;;;;22.87;51.50;100509.25;4982476;28;20202;-73
2023/05/07 08:55:35;;;;;;;3.10;2.80;;;;;;;22.94;50.90;100509.91;5002123;28;20248;-73
2023/05/07 08:58:01;;;;;;;6.05;2.92;;;;;;;22.49;52.23;100500.63;5005247;28;20544;-73
2023/05/07 09:00:28;;;;;;;4.47;2.72;;;;;;;22.54;52.51;100508.56;4997573;28;20205;-72
2023/05/07 09:02:54;;;;;;;3.30;3.00;;;;;;;23.09;51.13;100509.34;4984014;28;20303;-73
2023/05/07 09:05:20;;;;;;;3.55;2.90;;;;;;;23.72;49.16;100514.22;4992801;28;20220;-73
2023/05/07 09:07:47;;;;;;;4.05;3.00;;;;;;;24.06;48.16;100526.41;5001849;28;20211;-73
2023/05/07 09:10:13;;;;;;;4.20;2.90;;;;;;;24.08;47.59;100511.00;4979293;28;20232;-72
2023/05/07 09:12:40;;;;;;;3.88;3.22;;;;;;;24.50;47.03;100510.22;4997579;28;20224;-71
2023/05/07 09:15:07;;;;;;;3.25;2.72;;;;;;;24.65;47.17;100515.84;4998397;28;20227;-73
2023/05/07 09:17:34;;;;;;;4.57;3.10;;;;;;;24.09;46.29;100514.59;4998519;28;20708;-72
2023/05/07 09:20:05;;;;;;;4.68;3.10;;;;;;;24.40;46.49;100507.00;4986468;28;20243;-72
2023/05/07 09:22:37;;;;;;;4.30;3.35;;;;;;;23.91;47.60;100510.78;4997798;28;20204;-73
2023/05/07 09:25:04;;;;;;;3.92;3.28;;;;;;;23.69;48.58;100517.03;4997684;28;20243;-73
2023/05/07 09:27:31;;;;;;;5.47;3.03;;;;;;;23.79;48.92;100511.28;4996419;28;20211;-73
2023/05/07 09:29:57;;;;;;;3.92;2.97;;;;;;;24.02;48.13;100506.72;5002872;28;20770;-73
2023/05/07 09:32:25;;;;;;;3.22;2.92;;;;;;;24.40;46.94;100516.94;4999997;28;20266;-72
2023/05/07 09:34:51;;;;;;;3.58;3.15;;;;;;;24.57;46.75;100512.59;4999648;28;20196;-73
2023/05/07 09:37:18;;;;;;;3.50;3.08;;;;;;;24.94;45.00;100511.03;4998469;28;20203;-73
2023/05/07 09:39:46;;;;;;;3.50;3.20;;;;;;;25.28;44.67;100516.75;4994572;28;20621;-73
2023/05/07 09:42:16;;;;;;;3.50;3.10;;;;;;;25.52;44.00;100519.25;4999747;28;20431;-73
2023/05/07 09:44:44;;;;;;;5.57;3.17;;;;;;;25.75;43.52;100518.22;4996871;28;20259;-73
2023/05/07 09:47:11;;;;;;;6.28;3.85;;;;;;;25.96;42.81;100519.03;4991895;28;20562;-73
2023/05/07 09:49:42;;;;;;;8.85;3.20;;;;;;;26.18;43.12;100508.91;4981292;28;20596;-73
2023/05/07 09:52:10;;;;;;;4.18;3.30;;;;;;;26.01;42.37;100515.13;5001239;28;20223;-73
2023/05/07 09:54:37;;;;;;;3.65;3.35;;;;;;;25.54;42.98;100506.50;4993127;28;20195;-73
2023/05/07 09:57:06;;;;;;;4.07;3.22;;;;;;;25.42;43.72;100515.22;5012376;28;20209;-73
2023/05/07 09:59:32;;;;;;;4.38;3.47;;;;;;;24.76;45.30;100503.66;5020236;28;20298;-73
2023/05/07 10:02:01;;;;;;;3.90;3.50;;;;;;;24.53;46.03;100510.97;5013383;28;20251;-73
2023/05/07 10:04:31;;;;;;;5.15;3.60;;;;;;;24.35;46.69;100509.88;5009091;28;20206;-73
2023/05/07 10:06:59;;;;;;;5.32;3.78;;;;;;;24.08;47.27;100505.59;5017044;28;20227;-73
2023/05/07 10:09:26;;;;;;;6.00;3.63;;;;;;;24.56;46.40;100501.84;5014174;28;20248;-73
2023/05/07 10:11:54;;;;;;;4.05;3.65;;;;;;;23.94;46.44;100503.41;5013834;28;20647;-73
2023/05/07 10:14:21;;;;;;;5.13;3.20;;;;;;;24.30;46.57;100502.91;5014046;28;20197;-73
2023/05/07 10:16:48;;;;;;;3.95;3.55;;;;;;;24.47;45.30;100494.97;5005096;28;20463;-70
2023/05/07 10:19:15;;;;;;;8.00;3.55;;;;;;;24.23;46.62;100504.06;5002889;28;20219;-75
2023/05/07 10:21:51;;;;;;;3.95;3.40;;;;;;;24.38;46.51;100498.94;4986915;28;20787;-76
2023/05/07 10:24:33;;;;;;;6.13;4.10;;;;;;;24.08;46.65;100504.72;4984624;28;20207;-75
2023/05/07 10:27:02;;;;;;;4.22;3.83;;;;;;;23.84;47.10;100498.44;4998424;28;20228;-73
2023/05/07 10:29:35;;;;;;;5.05;3.90;;;;;;;23.77;47.21;100503.22;4988252;28;20212;-75
2023/05/07 10:32:19;;;;;;;4.75;3.90;;;;;;;23.60;47.51;100509.25;4998017;28;20193;-74
2023/05/07 10:34:50;;;;;;;4.63;4.15;;;;;;;22.85;49.69;100505.72;5001913;28;20201;-76
2023/05/07 10:37:17;;;;;;;5.65;3.85;;;;;;;23.15;49.54;100501.00;5002734;28;20204;-73
2023/05/07 10:39:44;;;;;;;5.05;3.72;;;;;;;23.31;48.73;100496.81;4997539;28;20735;-74
2023/05/07 10:42:12;;;;;;;4.70;3.70;;;;;;;23.33;48.81;100494.06;4997343;28;20197;-72
2023/05/07 10:44:39;;;;;;;5.25;4.30;;;;;;;23.33;48.42;100499.47;4982905;28;20880;-71
2023/05/07 10:47:11;;;;;;;4.05;3.65;;;;;;;23.50;47.65;100499.72;5003721;28;20208;-74
2023/05/07 10:49:43;;;;;;;4.82;4.20;;;;;;;23.66;46.88;100495.53;4999285;28;20259;-74
2023/05/07 10:52:17;;;;;;;4.90;3.95;;;;;;;23.72;47.15;100505.22;5001583;28;20291;-74
2023/05/07 10:54:45;;;;;;;4.57;3.80;;;;;;;24.06;47.23;100502.94;5002526;28;20233;-77
2023/05/07 10:57:36;;;;;;;5.60;3.78;;;;;;;24.63;45.09;100495.19;5006278;28;20209;-74
2023/05/07 11:00:21;;;;;;;6.60;4.00;;;;;;;24.80;44.70;100489.03;4999856;28;20299;-76
2023/05/07 11:03:07;;;;;;;5.55;3.83;;;;;;;24.60;45.59;100493.50;4996700;28;20291;-74
2023/05/07 11:05:34;;;;;;;5.07;4.30;;;;;;;24.44;45.32;100491.53;4980073;28;20220;-75
2023/05/07 11:08:05;;;;;;;6.18;4.82;;;;;;;24.54;45.46;100482.06;5002010;28;20204;-73
2023/05/07 11:10:55;;;;;;;5.82;4.35;;;;;;;24.27;45.42;100481.34;5001733;28;20192;-71
2023/05/07 11:13:42;;;;;;;5.13;4.05;;;;;;;24.73;43.94;100479.44;5003818;28;20200;-72
2023/05/07 11:16:22;;;;;;;4.93;4.05;;;;;;;24.41;44.79;100480.78;4997795;28;20267;-73
2023/05/07 11:18:51;;;;;;;6.07;4.25;;;;;;;24.50;44.30;100481.31;4984605;28;20220;-75
2023/05/07 11:21:54;;;;;;;5.28;4.05;;;;;;;25.03;43.46;100483.53;4986584;28;20274;-72
2023/05/07 11:24:21;;;;;;;5.38;4.40;;;;;;;25.00;43.72;100475.53;4901686;29;20226;-75